Time;durP1;ratioP1;P1;durP2;ratioP2;P2;SDS_P1;SDS_P2;PMS_P1;PMS_P2;Temp;Humidity;BMP_temperature;BMP_pressure;BME280_temperature;BME280_humidity;BME280_pressure;Samples;Min_cycle;Max_cycle;Signal;HPM_P1;HPM_P2
2022/08/28 00:00:13;;;;;;;11.67;8.73;;;15.60;84.20;;;;;;5076407;28;20190;-83
2022/08/28 00:02:41;;;;;;;10.77;7.87;;;15.60;82.80;;;;;;5071259;28;20330;-81
2022/08/28 00:05:10;;;;;;;10.23;7.57;;;15.70;83.60;;;;;;5081648;28;20179;-81
2022/08/28 00:07:38;;;;;;;10.80;6.47;;;15.80;82.80;;;;;;5083364;28;20177;-82
2022/08/28 00:10:07;;;;;;;5.70;4.80;;;15.90;81.90;;;;;;5061524;28;20182;-79
2022/08/28 00:12:36;;;;;;;4.83;3.60;;;15.90;80.80;;;;;;5062666;28;20175;-79
2022/08/28 00:15:10;;;;;;;7.77;5.90;;;16.20;81.00;;;;;;5068429;28;20210;-81
2022/08/28 00:17:38;;;;;;;8.90;5.43;;;16.50;81.60;;;;;;5069399;28;20573;-79
2022/08/28 00:20:09;;;;;;;6.27;4.53;;;16.40;80.10;;;;;;5059414;28;20637;-79
2022/08/28 00:22:38;;;;;;;5.70;3.03;;;16.30;80.00;;;;;;5060316;28;20762;-79
2022/08/28 00:25:07;;;;;;;5.07;2.30;;;16.40;79.90;;;;;;5059390;28;20189;-80
2022/08/28 00:27:53;;;;;;;5.30;2.20;;;16.60;78.40;;;;;;5054440;28;20200;-82
2022/08/28 00:30:24;;;;;;;2.43;1.40;;;16.70;77.60;;;;;;5062078;28;20178;-77
2022/08/28 00:32:53;;;;;;;1.60;1.50;;;16.70;76.90;;;;;;5055204;28;20201;-81
2022/08/28 00:35:22;;;;;;;5.17;2.27;;;16.80;76.90;;;;;;5063446;28;20176;-85
2022/08/28 00:37:50;;;;;;;3.60;2.80;;;16.90;76.80;;;;;;5078338;28;20198;-82
2022/08/28 00:40:19;;;;;;;4.33;2.83;;;17.20;77.00;;;;;;5071460;28;20226;-80
2022/08/28 00:42:47;;;;;;;7.00;2.73;;;17.30;76.90;;;;;;5078558;28;20188;-80
2022/08/28 00:45:17;;;;;;;3.90;2.60;;;17.40;77.20;;;;;;5074437;28;20270;-84
2022/08/28 00:47:45;;;;;;;5.00;2.80;;;17.70;76.50;;;;;;5066224;28;20167;-82
2022/08/28 00:50:16;;;;;;;9.20;3.00;;;17.90;75.80;;;;;;5065116;28;20183;-78
2022/08/28 00:52:49;;;;;;;4.23;2.43;;;17.80;74.90;;;;;;5067408;28;20181;-80
2022/08/28 00:55:21;;;;;;;4.07;2.50;;;17.80;75.80;;;;;;5071703;28;20617;-84
2022/08/28 00:57:59;;;;;;;6.27;2.70;;;18.00;75.60;;;;;;5073304;28;20169;-80
2022/08/28 01:00:34;;;;;;;4.27;2.20;;;18.20;74.80;;;;;;5075603;28;20231;-83
2022/08/28 01:03:03;;;;;;;5.57;2.50;;;18.20;74.70;;;;;;5076188;28;20679;-82
2022/08/28 01:05:33;;;;;;;3.73;2.23;;;18.20;75.10;;;;;;5079305;28;20223;-83
2022/08/28 01:08:00;;;;;;;2.63;2.00;;;18.40;75.00;;;;;;5069309;28;20693;-87
2022/08/28 01:10:31;;;;;;;2.93;1.70;;;18.50;73.50;;;;;;5065584;28;20194;-78
2022/08/28 01:12:59;;;;;;;5.60;2.13;;;18.60;73.00;;;;;;5066733;28;20193;-81
2022/08/28 01:15:30;;;;;;;5.50;1.50;;;18.80;73.50;;;;;;5075241;28;20185;-79
2022/08/28 01:18:03;;;;;;;4.20;1.33;;;18.80;72.70;;;;;;5071616;28;20171;-76
2022/08/28 01:20:34;;;;;;;3.83;1.60;;;18.90;72.10;;;;;;5072978;28;20187;-84
2022/08/28 01:23:28;;;;;;;5.43;1.70;;;19.00;71.30;;;;;;5069953;28;20183;-78
2022/08/28 01:25:56;;;;;;;3.37;1.40;;;18.90;71.50;;;;;;5070538;28;20180;-82
2022/08/28 01:28:24;;;;;;;2.77;1.10;;;18.80;71.30;;;;;;5067162;28;20175;-78
2022/08/28 01:30:52;;;;;;;5.47;1.37;;;18.90;71.40;;;;;;5073368;28;20687;-80
2022/08/28 01:33:19;;;;;;;3.47;1.10;;;18.90;70.70;;;;;;5072189;28;20210;-77
2022/08/28 01:35:48;;;;;;;5.77;1.37;;;19.00;70.70;;;;;;5074009;28;20760;-80
2022/08/28 01:38:16;;;;;;;5.30;1.40;;;19.30;69.40;;;;;;5076332;28;20183;-82
2022/08/28 01:40:47;;;;;;;2.13;1.40;;;19.50;68.40;;;;;;5063629;28;20277;-75
2022/08/28 01:43:22;;;;;;;2.67;1.40;;;19.40;68.70;;;;;;5072568;28;20230;-79
2022/08/28 01:45:54;;;;;;;4.43;1.20;;;19.60;66.90;;;;;;5065760;28;20187;-79
2022/08/28 01:48:24;;;;;;;3.13;1.30;;;19.80;65.70;;;;;;5067660;28;20191;-77
2022/08/28 01:50:52;;;;;;;2.60;1.43;;;20.00;66.30;;;;;;5077280;28;20205;-78
2022/08/28 01:53:22;;;;;;;3.57;1.53;;;20.30;64.10;;;;;;5077389;28;20633;-80
2022/08/28 01:55:51;;;;;;;1.77;1.10;;;20.00;62.00;;;;;;5071722;28;20541;-78
2022/08/28 01:58:19;;;;;;;6.90;1.37;;;20.30;62.60;;;;;;5065168;28;20191;-78
2022/08/28 02:00:46;;;;;;;4.53;1.83;;;20.40;60.80;;;;;;5066012;28;20222;-79
2022/08/28 02:03:14;;;;;;;5.20;1.20;;;20.30;61.50;;;;;;5065182;28;20191;-79
2022/08/28 02:05:42;;;;;;;4.10;1.50;;;20.30;63.30;;;;;;5069194;28;20178;-76
2022/08/28 02:08:09;;;;;;;3.23;1.30;;;20.20;63.10;;;;;;5071105;28;20183;-80
2022/08/28 02:10:39;;;;;;;2.33;0.90;;;20.30;63.80;;;;;;5067636;28;20265;-84
2022/08/28 02:13:07;;;;;;;3.57;0.70;;;20.70;62.50;;;;;;5071068;28;20194;-80
2022/08/28 02:15:36;;;;;;;5.23;1.00;;;20.50;60.80;;;;;;5067918;28;20192;-75
2022/08/28 02:18:04;;;;;;;2.60;0.93;;;20.60;61.10;;;;;;5074454;28;20278;-75
2022/08/28 02:20:32;;;;;;;6.00;1.43;;;20.60;61.00;;;;;;5065096;28;20263;-75
2022/08/28 02:23:00;;;;;;;1.90;1.03;;;20.70;62.50;;;;;;5062298;28;20182;-75
2022/08/28 02:25:28;;;;;;;1.50;0.73;;;20.80;61.80;;;;;;5064830;28;20268;-75
2022/08/28 02:27:56;;;;;;;3.17;0.80;;;20.60;58.90;;;;;;5071004;28;20183;-77
2022/08/28 02:30:23;;;;;;;2.43;0.70;;;20.50;59.40;;;;;;5067766;28;20197;-76
2022/08/28 02:32:50;;;;;;;2.17;1.00;;;20.50;59.60;;;;;;5072907;28;20191;-78
2022/08/28 02:35:19;;;;;;;2.07;1.00;;;21.10;59.80;;;;;;5076111;28;20198;-74
2022/08/28 02:37:48;;;;;;;2.67;0.90;;;21.30;59.40;;;;;;5069342;28;20182;-73
2022/08/28 02:40:17;;;;;;;2.70;0.87;;;20.70;57.90;;;;;;5067520;28;20234;-74
2022/08/28 02:42:45;;;;;;;0.90;0.70;;;20.70;59.50;;;;;;5071598;28;20757;-74
2022/08/28 02:45:13;;;;;;;3.30;1.70;;;20.90;58.50;;;;;;5070568;28;20267;-76
2022/08/28 02:47:42;;;;;;;1.53;1.30;;;21.00;58.10;;;;;;5070930;28;20191;-75
2022/08/28 02:50:13;;;;;;;2.90;0.80;;;20.90;56.00;;;;;;5061935;28;20183;-75
2022/08/28 02:52:41;;;;;;;2.03;0.80;;;21.00;57.70;;;;;;5072830;28;20547;-79
2022/08/28 02:55:11;;;;;;;2.47;0.90;;;21.00;57.50;;;;;;5067055;28;20195;-77
2022/08/28 02:57:39;;;;;;;1.17;0.70;;;21.10;57.10;;;;;;5066326;28;20184;-76
2022/08/28 03:00:12;;;;;;;0.77;0.60;;;21.10;56.80;;;;;;5071566;28;20187;-75
2022/08/28 03:02:40;;;;;;;2.60;0.80;;;21.10;56.70;;;;;;5067054;28;20215;-76
2022/08/28 03:05:09;;;;;;;2.13;0.90;;;21.30;57.10;;;;;;5067775;28;20207;-75
2022/08/28 03:07:36;;;;;;;1.50;0.87;;;21.30;57.60;;;;;;5068237;28;20240;-75
2022/08/28 03:10:06;;;;;;;2.60;0.73;;;21.70;56.40;;;;;;5069695;28;20183;-76
2022/08/28 03:12:34;;;;;;;2.93;0.97;;;21.70;56.50;;;;;;5059173;28;20184;-77
2022/08/28 03:15:02;;;;;;;1.47;0.77;;;21.40;56.20;;;;;;5067751;28;20251;-77
2022/08/28 03:17:30;;;;;;;2.57;0.90;;;21.30;55.10;;;;;;5073030;28;20182;-74
2022/08/28 03:19:58;;;;;;;2.27;0.87;;;21.20;56.70;;;;;;5065433;28;20195;-74
2022/08/28 03:25:11;;;;;;;3.33;1.23;;;21.40;58.70;;;;;;5068170;28;20232;-76
2022/08/28 03:27:39;;;;;;;3.17;0.97;;;21.60;58.40;;;;;;5065921;28;20184;-79
2022/08/28 03:30:07;;;;;;;4.93;1.07;;;21.60;56.30;;;;;;5067375;28;20206;-76
2022/08/28 03:32:35;;;;;;;3.77;1.47;;;21.00;59.50;;;;;;5068054;28;20248;-74
2022/08/28 03:35:04;;;;;;;1.70;0.83;;;21.30;58.40;;;;;;5068558;28;20183;-75
2022/08/28 03:37:31;;;;;;;2.10;0.97;;;21.30;57.60;;;;;;5068839;28;20187;-76
2022/08/28 03:39:59;;;;;;;3.03;1.00;;;21.70;57.60;;;;;;5060917;28;20227;-74
2022/08/28 03:42:27;;;;;;;3.50;1.03;;;22.30;55.70;;;;;;5069584;28;20239;-78
2022/08/28 03:44:54;;;;;;;3.57;1.10;;;22.00;56.30;;;;;;5069330;28;20262;-75
2022/08/28 03:47:23;;;;;;;3.87;1.00;;;22.50;56.10;;;;;;5068825;28;20179;-76
2022/08/28 03:49:57;;;;;;;4.30;1.10;;;22.10;55.40;;;;;;5070393;28;20174;-75
2022/08/28 03:52:25;;;;;;;5.33;1.90;;;22.00;55.50;;;;;;5071887;28;20186;-74
2022/08/28 03:54:52;;;;;;;4.80;2.43;;;22.30;55.10;;;;;;5071974;28;20273;-78
2022/08/28 03:57:21;;;;;;;7.87;4.67;;;22.00;54.90;;;;;;5067743;28;20273;-78
2022/08/28 03:59:50;;;;;;;6.63;1.30;;;22.80;54.10;;;;;;5070640;28;20199;-75
2022/08/28 04:02:19;;;;;;;2.97;0.90;;;22.90;53.20;;;;;;5070074;28;20211;-78
2022/08/28 04:04:47;;;;;;;3.00;1.10;;;22.50;54.80;;;;;;5072522;28;20600;-76
2022/08/28 04:07:15;;;;;;;2.73;1.10;;;22.30;56.00;;;;;;5070350;28;20183;-77
2022/08/28 04:09:43;;;;;;;2.03;0.90;;;22.70;54.30;;;;;;5068084;28;20211;-80
2022/08/28 04:12:10;;;;;;;4.40;1.20;;;22.70;54.50;;;;;;5063689;28;20285;-77
2022/08/28 04:14:38;;;;;;;2.83;0.80;;;22.70;54.30;;;;;;5064667;28;20203;-79
2022/08/28 04:17:06;;;;;;;3.17;0.83;;;22.60;55.00;;;;;;5072652;28;20606;-75
2022/08/28 04:19:34;;;;;;;1.57;0.90;;;22.30;55.80;;;;;;5055077;28;20199;-77
2022/08/28 04:22:02;;;;;;;2.40;1.10;;;22.20;55.80;;;;;;5052316;28;20237;-77
2022/08/28 04:24:29;;;;;;;4.33;1.37;;;23.10;54.30;;;;;;5058058;28;20175;-79
2022/08/28 04:26:57;;;;;;;3.80;0.97;;;23.40;52.90;;;;;;5064284;28;20172;-76
2022/08/28 04:29:24;;;;;;;5.10;1.20;;;23.30;54.00;;;;;;5057622;28;20187;-77
2022/08/28 04:31:51;;;;;;;5.87;0.90;;;23.70;52.70;;;;;;5053495;28;20176;-76
2022/08/28 04:34:19;;;;;;;1.90;0.97;;;23.00;53.50;;;;;;5063682;28;20183;-77
2022/08/28 04:36:49;;;;;;;2.80;1.10;;;22.80;54.50;;;;;;5055563;28;20240;-79
2022/08/28 04:39:16;;;;;;;4.27;1.10;;;23.20;54.50;;;;;;5065132;28;20203;-78
2022/08/28 04:41:44;;;;;;;1.90;1.10;;;23.30;53.80;;;;;;5067274;28;20287;-83
2022/08/28 04:44:14;;;;;;;4.17;1.00;;;22.60;55.10;;;;;;5064849;28;20199;-80
2022/08/28 04:46:41;;;;;;;2.90;1.00;;;22.10;56.60;;;;;;5053042;28;20233;-80
2022/08/28 04:49:09;;;;;;;6.20;1.20;;;21.50;58.20;;;;;;5067586;28;20658;-80
2022/08/28 04:51:36;;;;;;;2.20;1.10;;;21.80;57.70;;;;;;5059629;28;20187;-81
2022/08/28 04:54:04;;;;;;;1.90;1.13;;;22.00;57.40;;;;;;5065997;28;20180;-83
2022/08/28 04:56:31;;;;;;;4.20;1.10;;;22.60;55.60;;;;;;5052565;28;20323;-80
2022/08/28 04:59:01;;;;;;;2.90;1.00;;;23.50;54.00;;;;;;5053106;28;20168;-77
2022/08/28 05:01:28;;;;;;;3.63;1.00;;;23.90;52.60;;;;;;5056047;28;20195;-76
2022/08/28 05:03:58;;;;;;;1.93;0.80;;;23.80;51.80;;;;;;5055614;28;20180;-79
2022/08/28 05:06:27;;;;;;;4.20;0.93;;;23.70;52.80;;;;;;5054380;28;20203;-78
2022/08/28 05:08:58;;;;;;;3.87;1.10;;;23.80;52.80;;;;;;5056785;28;20594;-82
2022/08/28 05:11:28;;;;;;;5.03;1.20;;;24.20;51.10;;;;;;5055651;28;20182;-75
2022/08/28 05:13:55;;;;;;;3.60;1.20;;;23.00;54.30;;;;;;5055983;28;20176;-78
2022/08/28 05:16:23;;;;;;;5.57;1.53;;;23.00;53.60;;;;;;5052732;28;20632;-86
2022/08/28 05:18:50;;;;;;;3.03;0.80;;;22.80;55.10;;;;;;5065086;28;20228;-82
2022/08/28 05:21:21;;;;;;;3.97;1.20;;;23.50;54.30;;;;;;5052507;28;20218;-79
2022/08/28 05:23:52;;;;;;;3.43;1.10;;;22.30;56.60;;;;;;5051912;28;20207;-80
2022/08/28 05:26:20;;;;;;;2.20;0.80;;;21.20;60.30;;;;;;5055038;28;20182;-78
2022/08/28 05:28:48;;;;;;;4.53;1.00;;;20.30;63.00;;;;;;5064827;28;20176;-83
2022/08/28 05:31:20;;;;;;;3.07;1.10;;;20.10;64.20;;;;;;5063808;28;20187;-76
2022/08/28 05:33:48;;;;;;;2.23;0.80;;;20.40;63.70;;;;;;5058982;28;20180;-75
2022/08/28 05:36:18;;;;;;;3.43;0.80;;;20.20;64.00;;;;;;5056555;28;20174;-81
2022/08/28 05:38:45;;;;;;;1.13;0.90;;;19.90;65.50;;;;;;5069707;28;20774;-86
2022/08/28 05:41:19;;;;;;;3.00;0.87;;;19.70;66.70;;;;;;5063075;28;20729;-81
2022/08/28 05:43:47;;;;;;;4.20;1.00;;;19.80;67.00;;;;;;5051310;28;20191;-77
2022/08/28 05:46:16;;;;;;;5.23;1.23;;;19.60;67.90;;;;;;5053366;28;20184;-79
2022/08/28 05:48:44;;;;;;;2.60;1.00;;;19.80;67.50;;;;;;5058607;28;20187;-77
2022/08/28 05:51:13;;;;;;;3.80;1.27;;;19.50;68.00;;;;;;5054417;28;20188;-77
2022/08/28 05:53:43;;;;;;;2.03;0.93;;;19.50;68.60;;;;;;5070572;28;20631;-80
2022/08/28 05:56:17;;;;;;;2.53;1.00;;;19.60;68.20;;;;;;5055465;28;20199;-77
2022/08/28 05:58:45;;;;;;;9.20;1.53;;;19.50;68.80;;;;;;5057658;28;20735;-76
2022/08/28 06:01:27;;;;;;;2.00;1.00;;;19.90;67.20;;;;;;5077083;28;20203;-78
2022/08/28 06:04:07;;;;;;;2.63;0.80;;;20.80;65.80;;;;;;5068094;28;20547;-76
2022/08/28 06:06:38;;;;;;;2.53;0.80;;;21.80;61.60;;;;;;5061925;28;20213;-75
2022/08/28 06:09:14;;;;;;;4.70;0.90;;;22.20;59.60;;;;;;5081060;28;20226;-80
2022/08/28 06:11:43;;;;;;;4.17;1.10;;;22.30;58.70;;;;;;5055174;28;20656;-77
2022/08/28 06:14:12;;;;;;;2.93;0.80;;;22.30;58.40;;;;;;5059793;28;20538;-76
2022/08/28 06:16:42;;;;;;;3.40;0.83;;;22.40;57.70;;;;;;5071123;28;20171;-79
2022/08/28 06:19:11;;;;;;;3.83;1.27;;;21.70;60.30;;;;;;5068028;28;20184;-79
2022/08/28 06:21:40;;;;;;;4.70;1.10;;;21.30;61.90;;;;;;5070102;28;20526;-77
2022/08/28 06:24:09;;;;;;;3.53;1.00;;;21.80;59.90;;;;;;5067255;28;20204;-76
2022/08/28 06:26:36;;;;;;;5.30;1.03;;;22.10;59.00;;;;;;5070271;28;20192;-78
2022/08/28 06:29:08;;;;;;;2.03;0.80;;;22.10;59.10;;;;;;5068210;28;20529;-79
2022/08/28 06:31:35;;;;;;;4.07;0.83;;;21.00;62.30;;;;;;5068451;28;20507;-78
2022/08/28 06:34:02;;;;;;;2.67;0.80;;;20.10;65.40;;;;;;5058713;28;20209;-79
2022/08/28 06:36:32;;;;;;;3.43;1.00;;;19.60;67.30;;;;;;5068181;28;21933;-89
2022/08/28 06:39:02;;;;;;;3.57;1.20;;;19.20;68.40;;;;;;5055672;28;20337;-86
2022/08/28 06:41:31;;;;;;;2.40;0.90;;;18.90;70.00;;;;;;5057926;28;20223;-81
2022/08/28 06:43:59;;;;;;;3.57;1.00;;;18.80;70.50;;;;;;5054326;28;20191;-80
2022/08/28 06:46:29;;;;;;;3.57;1.00;;;18.50;71.30;;;;;;5054199;28;20184;-81
2022/08/28 06:48:56;;;;;;;1.90;0.80;;;18.40;71.90;;;;;;5054051;28;20180;-82
2022/08/28 06:51:23;;;;;;;4.93;1.17;;;18.30;72.70;;;;;;5057305;28;20183;-86
2022/08/28 06:53:51;;;;;;;4.23;1.17;;;18.30;73.20;;;;;;5054395;28;20191;-84
2022/08/28 06:56:20;;;;;;;3.77;1.00;;;18.10;73.30;;;;;;5055845;28;20218;-82
2022/08/28 06:58:49;;;;;;;4.87;1.17;;;18.00;73.80;;;;;;5056730;28;20168;-76
2022/08/28 07:01:23;;;;;;;4.37;1.10;;;17.90;74.10;;;;;;5064244;28;20547;-82
2022/08/28 07:03:53;;;;;;;6.07;1.10;;;17.80;74.40;;;;;;5066573;28;20187;-77
2022/08/28 07:06:22;;;;;;;7.10;1.40;;;17.80;74.50;;;;;;5059390;28;20620;-80
2022/08/28 07:08:49;;;;;;;2.17;1.00;;;17.80;74.90;;;;;;5067316;28;20210;-80
2022/08/28 07:11:20;;;;;;;3.17;1.00;;;17.80;75.20;;;;;;5066187;28;20214;-79
2022/08/28 07:13:48;;;;;;;4.10;1.47;;;17.80;75.50;;;;;;5071852;28;20171;-76
2022/08/28 07:16:18;;;;;;;4.87;1.23;;;17.80;75.50;;;;;;5056811;28;20637;-80
2022/08/28 07:18:46;;;;;;;5.03;1.40;;;17.70;75.90;;;;;;5062705;28;20172;-79
2022/08/28 07:21:14;;;;;;;2.47;1.10;;;17.70;76.50;;;;;;5054583;28;20286;-77
2022/08/28 07:23:43;;;;;;;5.90;1.40;;;17.60;76.90;;;;;;5054069;28;20175;-77
2022/08/28 07:26:17;;;;;;;1.87;0.97;;;17.50;77.00;;;;;;5058124;28;20182;-77
2022/08/28 07:28:44;;;;;;;3.27;0.90;;;17.50;77.20;;;;;;5061443;28;20539;-77
2022/08/28 07:31:15;;;;;;;4.13;1.40;;;17.50;77.50;;;;;;5058295;28;20213;-76
2022/08/28 07:33:42;;;;;;;6.27;1.37;;;17.50;77.80;;;;;;5055751;28;20201;-76
2022/08/28 07:36:14;;;;;;;4.43;1.20;;;17.50;78.00;;;;;;5055560;28;20180;-77
2022/08/28 07:38:42;;;;;;;3.93;1.50;;;17.50;78.10;;;;;;5055650;28;20189;-76
2022/08/28 07:41:22;;;;;;;4.50;1.23;;;17.50;78.50;;;;;;5062906;28;20219;-75
2022/08/28 07:46:58;;;;;;;6.13;1.67;;;17.40;79.00;;;;;;5011953;28;20228;-76
2022/08/28 07:49:26;;;;;;;5.03;2.77;;;17.30;79.50;;;;;;5004552;28;20277;-77
2022/08/28 07:51:53;;;;;;;7.57;1.80;;;17.20;79.60;;;;;;5032498;28;20223;-77
2022/08/28 07:54:21;;;;;;;13.53;8.27;;;17.20;79.80;;;;;;5053371;28;20189;-76
2022/08/28 07:56:49;;;;;;;3.00;1.70;;;17.20;80.10;;;;;;5053121;28;20182;-76
2022/08/28 07:59:17;;;;;;;7.53;6.10;;;17.20;80.30;;;;;;5060021;28;20187;-77
2022/08/28 08:01:47;;;;;;;18.17;10.60;;;17.10;80.50;;;;;;5067237;28;20223;-78
2022/08/28 08:04:16;;;;;;;10.83;4.47;;;17.10;80.70;;;;;;5069903;28;20180;-78
2022/08/28 08:06:44;;;;;;;3.83;1.80;;;17.10;81.00;;;;;;5063330;28;20187;-78
2022/08/28 08:09:14;;;;;;;4.77;1.53;;;17.00;81.20;;;;;;5076445;28;20689;-78
2022/08/28 08:11:42;;;;;;;15.10;10.20;;;17.00;81.30;;;;;;5065886;28;20209;-78
2022/08/28 08:14:10;;;;;;;8.17;5.80;;;16.90;81.50;;;;;;5068244;28;20535;-77
2022/08/28 08:16:41;;;;;;;4.93;2.20;;;16.80;81.70;;;;;;5056921;28;20186;-77
2022/08/28 08:19:12;;;;;;;6.57;2.30;;;16.80;81.90;;;;;;5051892;28;20184;-77
2022/08/28 08:21:42;;;;;;;6.67;1.50;;;16.80;81.90;;;;;;5052959;28;20259;-78
2022/08/28 08:24:12;;;;;;;7.13;1.77;;;16.80;82.20;;;;;;5056343;28;20568;-76
2022/08/28 08:26:44;;;;;;;6.37;1.73;;;16.70;82.50;;;;;;5059757;28;20219;-76
2022/08/28 08:29:13;;;;;;;6.20;1.90;;;16.70;82.80;;;;;;5072513;28;20182;-77
2022/08/28 08:31:40;;;;;;;6.17;1.53;;;16.70;82.90;;;;;;5058626;28;20174;-77
2022/08/28 08:34:08;;;;;;;12.70;1.80;;;16.70;82.90;;;;;;5057621;28;20249;-76
2022/08/28 08:36:37;;;;;;;6.30;2.20;;;16.70;82.70;;;;;;5052826;28;20649;-77
2022/08/28 08:39:07;;;;;;;6.47;4.07;;;16.80;82.80;;;;;;5052359;28;20183;-78
2022/08/28 08:41:52;;;;;;;10.10;6.07;;;16.70;82.80;;;;;;5052132;28;20241;-76
2022/08/28 08:44:42;;;;;;;5.83;1.97;;;16.80;82.70;;;;;;5052711;28;20257;-78
2022/08/28 08:47:33;;;;;;;5.93;1.50;;;16.80;82.50;;;;;;5063490;28;20185;-79
2022/08/28 08:50:08;;;;;;;6.80;1.77;;;16.80;82.40;;;;;;5065688;28;20255;-78
2022/08/28 08:53:18;;;;;;;5.43;1.73;;;16.80;82.20;;;;;;5051274;28;20575;-77
2022/08/28 08:55:52;;;;;;;8.40;1.87;;;16.70;82.60;;;;;;5049297;28;20279;-78
2022/08/28 08:58:31;;;;;;;8.00;1.67;;;16.80;82.60;;;;;;5052108;28;20197;-78
2022/08/28 09:01:30;;;;;;;10.43;2.13;;;16.80;82.70;;;;;;5052071;28;20587;-79
2022/08/28 09:04:38;;;;;;;8.50;2.03;;;16.70;82.80;;;;;;5051764;28;20578;-77
2022/08/28 09:07:29;;;;;;;6.27;2.23;;;16.80;82.90;;;;;;5054543;28;20633;-78
2022/08/28 09:09:57;;;;;;;11.47;1.80;;;16.70;83.20;;;;;;5059912;28;20170;-77
2022/08/28 09:12:34;;;;;;;13.47;2.07;;;16.70;83.50;;;;;;5052012;28;20191;-77
2022/08/28 09:15:16;;;;;;;7.70;1.80;;;16.70;83.60;;;;;;5067638;28;20649;-76
2022/08/28 09:17:52;;;;;;;10.73;2.20;;;16.70;83.90;;;;;;5068611;28;20183;-77
2022/08/28 09:20:23;;;;;;;13.87;2.10;;;16.70;83.90;;;;;;5070813;28;20202;-78
2022/08/28 09:22:51;;;;;;;7.77;2.07;;;16.70;84.00;;;;;;5072840;28;20211;-77
2022/08/28 09:25:54;;;;;;;7.63;2.13;;;16.70;84.10;;;;;;5068838;28;20517;-78
2022/08/28 09:28:28;;;;;;;8.17;2.23;;;16.70;84.40;;;;;;5073939;28;20180;-78
2022/08/28 09:31:13;;;;;;;5.70;1.97;;;16.60;84.80;;;;;;5068729;28;20183;-78
2022/08/28 09:33:46;;;;;;;9.23;2.00;;;16.60;85.00;;;;;;5075062;28;20182;-77
2022/08/28 09:36:31;;;;;;;8.20;2.07;;;16.70;85.40;;;;;;5067637;28;20195;-78
2022/08/28 09:39:06;;;;;;;14.60;2.50;;;16.60;85.50;;;;;;5066096;28;20233;-78
2022/08/28 09:44:24;;;;;;;12.33;3.03;;;16.60;85.70;;;;;;5068285;28;20218;-77
2022/08/28 09:46:52;;;;;;;11.13;2.73;;;16.50;85.80;;;;;;5074358;28;20183;-77
2022/08/28 09:49:26;;;;;;;10.27;2.47;;;16.60;86.10;;;;;;5073373;28;20179;-76
2022/08/28 09:51:58;;;;;;;8.80;2.10;;;16.60;86.30;;;;;;5074334;28;20194;-77
2022/08/28 09:54:36;;;;;;;7.93;2.30;;;16.60;86.20;;;;;;5068821;28;20175;-77
2022/08/28 09:57:03;;;;;;;8.90;2.03;;;16.60;86.30;;;;;;5072107;28;20278;-77
2022/08/28 09:59:31;;;;;;;8.30;2.23;;;16.60;86.40;;;;;;5072037;28;20183;-75
2022/08/28 10:02:10;;;;;;;15.70;3.10;;;16.60;86.50;;;;;;5074279;28;20221;-77
2022/08/28 10:05:04;;;;;;;10.67;2.23;;;16.60;86.60;;;;;;5074178;28;20539;-78
2022/08/28 10:07:41;;;;;;;16.10;2.83;;;16.70;86.20;;;;;;5067364;28;20238;-77
2022/08/28 10:10:26;;;;;;;9.40;2.27;;;16.70;86.30;;;;;;5067215;28;20185;-77
2022/08/28 10:13:00;;;;;;;11.07;2.50;;;16.60;86.30;;;;;;5063259;28;20213;-76
2022/08/28 10:15:45;;;;;;;12.10;1.90;;;16.60;86.60;;;;;;5062922;28;20275;-77
2022/08/28 10:18:42;;;;;;;15.67;2.50;;;16.50;86.60;;;;;;5066504;28;20190;-76
2022/08/28 10:21:20;;;;;;;12.27;2.30;;;16.50;86.90;;;;;;5063987;28;20666;-77
2022/08/28 10:24:15;;;;;;;16.47;2.67;;;16.40;87.00;;;;;;5064302;28;20185;-77
2022/08/28 10:27:01;;;;;;;12.17;2.40;;;16.40;87.10;;;;;;5068319;28;20265;-78
2022/08/28 10:29:44;;;;;;;13.93;3.17;;;16.40;87.00;;;;;;5063739;28;20257;-77
2022/08/28 10:32:11;;;;;;;14.20;2.60;;;16.30;87.20;;;;;;5066963;28;20316;-78
2022/08/28 10:35:03;;;;;;;7.00;2.40;;;16.40;87.30;;;;;;5065936;28;20254;-79
2022/08/28 10:37:47;;;;;;;15.30;2.70;;;16.40;87.30;;;;;;5068521;28;20186;-77
2022/08/28 10:40:38;;;;;;;17.63;3.63;;;16.30;87.30;;;;;;5071339;28;20725;-77
2022/08/28 10:43:34;;;;;;;14.07;2.77;;;16.30;87.40;;;;;;5068583;28;20216;-79
2022/08/28 10:46:10;;;;;;;12.87;2.40;;;16.30;87.60;;;;;;5066007;28;20204;-78
2022/08/28 10:48:59;;;;;;;13.47;2.30;;;16.30;87.30;;;;;;5071219;28;20738;-77
2022/08/28 10:51:49;;;;;;;10.23;2.47;;;16.30;87.10;;;;;;5070001;28;20201;-77
2022/08/28 10:54:35;;;;;;;14.90;2.57;;;16.30;87.20;;;;;;5066530;28;20186;-77
2022/08/28 10:57:23;;;;;;;13.93;2.50;;;16.30;87.10;;;;;;5069768;28;20267;-77
2022/08/28 10:59:53;;;;;;;13.23;2.50;;;16.20;87.30;;;;;;5073249;28;20664;-78
2022/08/28 11:02:24;;;;;;;8.90;2.40;;;16.20;87.40;;;;;;5073854;28;20213;-77
2022/08/28 11:04:53;;;;;;;16.20;2.73;;;16.20;87.30;;;;;;5069575;28;20184;-78
2022/08/28 11:07:32;;;;;;;12.53;2.30;;;16.20;87.30;;;;;;5072392;28;20658;-78
2022/08/28 11:10:37;;;;;;;14.17;3.20;;;16.30;87.20;;;;;;5072464;28;20697;-76
2022/08/28 11:13:06;;;;;;;16.20;2.67;;;16.30;86.90;;;;;;5063034;28;20625;-77
2022/08/28 11:15:35;;;;;;;10.00;2.50;;;16.30;87.10;;;;;;5063245;28;20203;-77
2022/08/28 11:18:17;;;;;;;9.93;2.63;;;16.30;86.90;;;;;;5061605;28;20186;-77
2022/08/28 11:21:23;;;;;;;13.73;2.43;;;16.30;86.90;;;;;;5062079;28;20230;-78
2022/08/28 11:23:50;;;;;;;17.90;2.33;;;16.30;86.80;;;;;;5066876;28;20279;-77
2022/08/28 11:26:44;;;;;;;14.17;2.30;;;16.30;86.80;;;;;;5062675;28;20599;-76
2022/08/28 11:29:31;;;;;;;17.40;2.80;;;16.30;86.90;;;;;;5064273;28;20703;-77
2022/08/28 11:32:30;;;;;;;14.63;2.40;;;16.30;86.80;;;;;;5068013;28;20179;-79
2022/08/28 11:35:04;;;;;;;8.43;2.03;;;16.30;87.10;;;;;;5066185;28;20667;-77
2022/08/28 11:37:44;;;;;;;12.80;2.50;;;16.30;86.80;;;;;;5067665;28;20641;-77
2022/08/28 11:40:40;;;;;;;13.07;2.20;;;16.30;86.80;;;;;;5067943;28;20219;-77
2022/08/28 11:43:13;;;;;;;7.53;1.60;;;16.30;86.70;;;;;;5059063;28;20703;-77
2022/08/28 11:45:46;;;;;;;14.73;2.80;;;16.30;86.80;;;;;;5070436;28;20184;-77
2022/08/28 11:48:35;;;;;;;15.83;2.50;;;16.30;86.70;;;;;;5067658;28;20183;-77
2022/08/28 11:51:09;;;;;;;9.87;2.37;;;16.20;86.80;;;;;;5064875;28;20522;-77
2022/08/28 11:53:39;;;;;;;12.90;2.20;;;16.20;87.00;;;;;;5069767;28;20177;-78
2022/08/28 11:56:15;;;;;;;8.77;2.03;;;16.20;87.00;;;;;;5070577;28;20188;-77
2022/08/28 11:59:00;;;;;;;12.47;2.40;;;16.20;86.80;;;;;;5065055;28;20204;-76
2022/08/28 12:01:36;;;;;;;12.03;2.40;;;16.20;86.90;;;;;;5067148;28;20223;-77
2022/08/28 12:04:31;;;;;;;12.57;2.73;;;16.20;86.80;;;;;;5068733;28;20590;-77
2022/08/28 12:07:14;;;;;;;14.80;2.33;;;16.20;86.90;;;;;;5071951;28;20805;-78
2022/08/28 12:09:47;;;;;;;9.80;2.20;;;16.10;87.10;;;;;;5073579;28;20296;-76
2022/08/28 12:12:23;;;;;;;11.90;2.60;;;16.20;87.10;;;;;;5070826;28;20224;-76
2022/08/28 12:15:01;;;;;;;11.50;2.00;;;16.10;87.00;;;;;;5071612;28;20193;-77
2022/08/28 12:17:45;;;;;;;12.10;2.70;;;16.10;87.10;;;;;;5059851;28;20249;-77
2022/08/28 12:20:24;;;;;;;10.23;1.80;;;16.10;87.20;;;;;;5062052;28;20183;-77
2022/08/28 12:22:55;;;;;;;14.93;2.30;;;16.10;87.00;;;;;;5062508;28;20265;-75
2022/08/28 12:25:35;;;;;;;15.53;2.73;;;16.00;87.30;;;;;;5068219;28;20191;-77
2022/08/28 12:28:20;;;;;;;10.87;2.40;;;16.00;87.30;;;;;;5060601;28;20233;-77
2022/08/28 12:31:07;;;;;;;13.03;2.53;;;15.90;87.40;;;;;;5062621;28;20175;-77
2022/08/28 12:33:41;;;;;;;10.67;2.43;;;15.90;87.70;;;;;;5065198;28;20197;-77
2022/08/28 12:36:17;;;;;;;15.57;2.60;;;15.90;87.80;;;;;;5061186;28;20171;-77
2022/08/28 12:38:50;;;;;;;12.87;2.63;;;15.90;87.80;;;;;;5066609;28;20194;-76
2022/08/28 12:41:20;;;;;;;13.70;2.80;;;15.80;87.90;;;;;;5063076;28;20228;-76
2022/08/28 12:43:51;;;;;;;21.43;4.17;;;15.80;88.30;;;;;;5067339;28;20579;-76
2022/08/28 12:46:26;;;;;;;12.17;2.70;;;15.90;88.00;;;;;;5065322;28;20179;-76
2022/08/28 12:48:58;;;;;;;17.23;3.17;;;15.80;87.90;;;;;;5070518;28;20241;-77
2022/08/28 12:51:31;;;;;;;14.03;3.47;;;15.80;87.90;;;;;;5069198;28;20515;-77
2022/08/28 12:54:05;;;;;;;13.47;2.57;;;15.70;88.00;;;;;;5064260;28;20179;-77
2022/08/28 12:56:36;;;;;;;15.83;2.70;;;15.70;88.20;;;;;;5067982;28;20176;-76
2022/08/28 12:59:37;;;;;;;11.43;2.60;;;15.70;88.20;;;;;;5069399;28;20191;-77
2022/08/28 13:02:09;;;;;;;19.63;2.90;;;15.70;88.20;;;;;;5067844;28;20206;-77
2022/08/28 13:05:00;;;;;;;17.50;2.70;;;15.60;88.30;;;;;;5063481;28;20635;-77
2022/08/28 13:07:31;;;;;;;16.27;2.73;;;15.60;88.40;;;;;;5058434;28;20780;-77
2022/08/28 13:10:09;;;;;;;12.20;2.07;;;15.50;88.20;;;;;;5064911;28;20266;-77
2022/08/28 13:12:41;;;;;;;8.13;1.90;;;15.50;88.30;;;;;;5052717;28;20242;-77
2022/08/28 13:15:09;;;;;;;14.53;2.87;;;15.40;88.50;;;;;;5057305;28;20181;-77
2022/08/28 13:17:47;;;;;;;11.57;3.07;;;15.40;88.40;;;;;;5053141;28;20576;-76
2022/08/28 13:20:30;;;;;;;11.57;2.40;;;15.30;88.30;;;;;;5052138;28;20182;-76